Time;durP1;ratioP1;P1;durP2;ratioP2;P2;SDS_P1;SDS_P2;PMS_P1;PMS_P2;Temp;Humidity;BMP_temperature;BMP_pressure;BME280_temperature;BME280_humidity;BME280_pressure;Samples;Min_cycle;Max_cycle;Signal;HPM_P1;HPM_P2
2022/05/26 00:00:11;;;;;;;4.70;1.17;;;;;;;;;;5031247;28;20037;-58
2022/05/26 00:03:27;;;;;;;1.20;0.55;;;;;;;;;;5047942;28;20033;-58
2022/05/26 00:06:22;;;;;;;1.30;0.70;;;;;;;;;;5044198;28;20048;-58
2022/05/26 00:09:26;;;;;;;1.42;0.50;;;;;;;;;;5045144;28;20045;-58
2022/05/26 00:12:04;;;;;;;1.52;0.70;;;;;;;;;;5005706;28;20047;-58
2022/05/26 00:18:25;;;;;;;1.25;0.57;;;;;;;;;;5005887;28;20042;-58
2022/05/26 00:21:22;;;;;;;1.27;0.50;;;;;;;;;;4968294;28;20052;-58
2022/05/26 00:27:19;;;;;;;1.20;0.60;;;;;;;;;;4973995;28;20062;-58
2022/05/26 00:32:49;;;;;;;2.72;0.70;;;;;;;;;;5047279;28;20040;-58
2022/05/26 00:35:37;;;;;;;3.90;0.88;;;;;;;;;;5030178;28;20021;-58
2022/05/26 00:41:14;;;;;;;1.63;0.52;;;;;;;;;;5037843;28;20087;-58
2022/05/26 00:47:04;;;;;;;2.97;0.60;;;;;;;;;;5023368;28;19916;-58
2022/05/26 00:49:56;;;;;;;2.53;0.57;;;;;;;;;;5028804;28;20042;-58
2022/05/26 00:52:52;;;;;;;1.00;0.50;;;;;;;;;;5027250;28;20026;-58
2022/05/26 00:55:27;;;;;;;2.35;0.73;;;;;;;;;;5027896;28;20022;-58
2022/05/26 00:58:15;;;;;;;1.25;0.57;;;;;;;;;;5027020;28;20081;-58
2022/05/26 01:00:55;;;;;;;1.95;0.63;;;;;;;;;;5027087;28;20118;-58
2022/05/26 01:03:59;;;;;;;1.55;0.70;;;;;;;;;;4976744;28;20096;-58
2022/05/26 01:06:54;;;;;;;1.70;0.57;;;;;;;;;;5029347;28;20022;-58
2022/05/26 01:09:41;;;;;;;0.95;0.47;;;;;;;;;;5031634;28;20037;-58
2022/05/26 01:18:26;;;;;;;;;;;;;;;;;;4971216;29;20508;-58
2022/05/26 01:21:12;;;;;;;0.65;0.35;;;;;;;;;;4969943;29;19914;-58
2022/05/26 01:23:50;;;;;;;2.78;0.93;;;;;;;;;;4971169;29;20031;-58
2022/05/26 01:29:52;;;;;;;1.77;0.63;;;;;;;;;;4970197;29;20038;-58
2022/05/26 01:36:18;;;;;;;;;;;;;;;;;;;;;
2022/05/26 01:38:58;;;;;;;3.33;0.43;;;;;;;;;;5029700;28;20037;-58
2022/05/26 01:42:05;;;;;;;1.23;0.60;;;;;;;;;;5013364;28;20085;-58
2022/05/26 01:48:01;;;;;;;1.25;0.57;;;;;;;;;;4989828;28;20039;-58
2022/05/26 01:53:59;;;;;;;0.75;0.30;;;;;;;;;;4990353;28;20119;-58
2022/05/26 01:57:13;;;;;;;4.10;1.60;;;;;;;;;;5012874;28;20097;-58
2022/05/26 02:00:07;;;;;;;3.03;0.40;;;;;;;;;;4990032;28;20038;-58
2022/05/26 02:02:50;;;;;;;0.60;0.30;;;;;;;;;;4990032;28;20027;-58
2022/05/26 02:05:28;;;;;;;1.08;0.50;;;;;;;;;;4990017;28;20046;-58
2022/05/26 02:08:00;;;;;;;1.00;0.50;;;;;;;;;;4989266;28;20090;-58
2022/05/26 02:14:16;;;;;;;1.15;0.52;;;;;;;;;;4931546;29;20040;-58
2022/05/26 02:16:58;;;;;;;1.67;0.75;;;;;;;;;;4969766;29;20057;-58
2022/05/26 02:26:18;;;;;;;0.95;0.50;;;;;;;;;;4931203;29;20067;-58
2022/05/26 02:35:19;;;;;;;0.98;0.47;;;;;;;;;;4931795;28;20151;-58
2022/05/26 02:37:57;;;;;;;1.02;0.50;;;;;;;;;;5009061;28;20041;-58
2022/05/26 02:44:00;;;;;;;;;;;;;;;;;;;;;
2022/05/26 02:46:52;;;;;;;;;;;;;;;;;;;;;
2022/05/26 02:49:59;;;;;;;1.52;0.73;;;;;;;;;;4983526;28;20065;-58
2022/05/26 02:52:26;;;;;;;1.58;0.57;;;;;;;;;;5027877;28;20041;-58
2022/05/26 02:55:27;;;;;;;0.90;0.50;;;;;;;;;;5045841;28;20068;-58
2022/05/26 02:58:26;;;;;;;1.73;0.60;;;;;;;;;;4997452;28;20064;-58
2022/05/26 03:04:12;;;;;;;3.28;0.80;;;;;;;;;;5049111;28;20032;-58
2022/05/26 03:07:12;;;;;;;1.35;0.60;;;;;;;;;;5049354;28;20048;-58
2022/05/26 03:12:54;;;;;;;0.98;0.45;;;;;;;;;;5048867;28;20070;-58
2022/05/26 03:15:35;;;;;;;2.10;0.70;;;;;;;;;;5031495;28;20034;-58
2022/05/26 03:21:28;;;;;;;0.98;0.55;;;;;;;;;;5007879;28;20085;-58
2022/05/26 03:24:28;;;;;;;1.13;0.57;;;;;;;;;;5007658;28;20035;-58
2022/05/26 03:27:35;;;;;;;2.78;0.65;;;;;;;;;;5007311;28;20034;-58
2022/05/26 03:31:20;;;;;;;1.23;0.63;;;;;;;;;;5006522;28;20048;-58
2022/05/26 03:42:24;;;;;;;2.78;0.43;;;;;;;;;;5013904;28;20033;-58
2022/05/26 03:45:33;;;;;;;;;;;;;;;;;;;;;
2022/05/26 03:48:05;;;;;;;4.35;0.95;;;;;;;;;;5012622;28;20427;-58
2022/05/26 03:50:44;;;;;;;1.00;0.50;;;;;;;;;;4994915;28;20125;-58
2022/05/26 03:53:33;;;;;;;;;;;;;;;;;;;;;
2022/05/26 03:56:33;;;;;;;1.08;0.73;;;;;;;;;;5032615;28;20414;-58
2022/05/26 03:59:09;;;;;;;4.65;0.63;;;;;;;;;;5023618;28;20045;-58
2022/05/26 04:01:37;;;;;;;2.08;0.60;;;;;;;;;;5048892;28;20587;-58
2022/05/26 04:04:25;;;;;;;2.13;0.70;;;;;;;;;;5032332;28;20041;-58
2022/05/26 04:07:20;;;;;;;2.88;0.60;;;;;;;;;;5024127;28;20049;-58
2022/05/26 04:09:54;;;;;;;1.42;0.60;;;;;;;;;;5055589;28;20471;-58
2022/05/26 04:12:59;;;;;;;1.58;0.55;;;;;;;;;;5054794;28;20028;-58
2022/05/26 04:18:30;;;;;;;2.58;0.85;;;;;;;;;;5054655;28;20072;-57
2022/05/26 04:21:29;;;;;;;0.88;0.40;;;;;;;;;;5053890;28;20104;-57
2022/05/26 04:24:17;;;;;;;0.73;0.35;;;;;;;;;;5003570;28;20037;-58
2022/05/26 04:26:49;;;;;;;0.90;0.50;;;;;;;;;;5053950;28;20025;-58
2022/05/26 04:29:48;;;;;;;2.45;0.77;;;;;;;;;;5036261;28;20491;-58
2022/05/26 04:32:28;;;;;;;0.75;0.35;;;;;;;;;;5042598;28;20041;-57
2022/05/26 04:38:14;;;;;;;1.05;0.50;;;;;;;;;;5045720;28;20056;-58
2022/05/26 04:40:40;;;;;;;0.77;0.32;;;;;;;;;;5047093;28;20133;-58
2022/05/26 04:43:23;;;;;;;0.95;0.40;;;;;;;;;;5052356;28;20037;-58
2022/05/26 04:45:54;;;;;;;0.93;0.38;;;;;;;;;;5038367;28;20029;-58
2022/05/26 04:48:43;;;;;;;0.75;0.30;;;;;;;;;;5052605;28;20049;-58
2022/05/26 04:51:34;;;;;;;0.80;0.32;;;;;;;;;;5024502;28;20052;-58
2022/05/26 04:54:18;;;;;;;1.23;0.63;;;;;;;;;;5035370;28;20068;-58
2022/05/26 04:56:51;;;;;;;0.80;0.35;;;;;;;;;;5052444;28;20025;-58
2022/05/26 04:59:39;;;;;;;3.83;0.73;;;;;;;;;;5052642;28;20029;-58
2022/05/26 05:02:18;;;;;;;3.50;0.65;;;;;;;;;;5036040;28;20375;-58
2022/05/26 05:05:15;;;;;;;1.30;0.40;;;;;;;;;;5074420;28;20017;-58
2022/05/26 05:07:53;;;;;;;1.08;0.38;;;;;;;;;;5058311;28;20052;-59
2022/05/26 05:10:32;;;;;;;3.83;0.60;;;;;;;;;;5074116;28;20025;-58
2022/05/26 05:13:17;;;;;;;1.33;0.77;;;;;;;;;;5055338;28;20037;-58
2022/05/26 05:19:05;;;;;;;0.93;0.60;;;;;;;;;;5031860;28;20156;-58
2022/05/26 05:21:51;;;;;;;0.38;0.20;;;;;;;;;;5073563;28;20114;-58
2022/05/26 05:24:55;;;;;;;1.35;0.40;;;;;;;;;;5055743;28;20028;-58
2022/05/26 05:27:36;;;;;;;2.50;0.52;;;;;;;;;;5012612;28;20098;-58
2022/05/26 05:30:31;;;;;;;0.50;0.25;;;;;;;;;;5069922;28;20052;-58
2022/05/26 05:33:19;;;;;;;1.08;0.47;;;;;;;;;;5074668;28;20029;-58
2022/05/26 05:39:01;;;;;;;0.55;0.25;;;;;;;;;;5012697;28;20049;-59
2022/05/26 05:45:35;;;;;;;5.25;0.73;;;;;;;;;;4953710;29;20031;-58
2022/05/26 05:48:23;;;;;;;;;;;;;;;;;;;;;
2022/05/26 05:53:51;;;;;;;2.55;0.65;;;;;;;;;;5018231;28;20042;-58
2022/05/26 05:56:33;;;;;;;3.42;0.82;;;;;;;;;;5029322;28;20033;-58
2022/05/26 06:02:09;;;;;;;0.90;0.40;;;;;;;;;;4998001;28;19921;-58
2022/05/26 06:05:34;;;;;;;1.33;0.45;;;;;;;;;;5028422;28;20033;-58
2022/05/26 06:07:50;;;;;;;0.52;0.40;;;;;;;;;;5020071;28;20041;-58
2022/05/26 06:10:38;;;;;;;0.50;0.30;;;;;;;;;;5027170;28;20057;-58
2022/05/26 06:16:02;;;;;;;1.73;0.20;;;;;;;;;;4994908;28;20034;-58
2022/05/26 06:18:49;;;;;;;1.27;0.55;;;;;;;;;;5051474;28;20439;-58
2022/05/26 06:21:15;;;;;;;2.42;0.40;;;;;;;;;;5039257;28;20471;-58
2022/05/26 06:24:22;;;;;;;0.52;0.22;;;;;;;;;;5039266;28;20471;-59
2022/05/26 06:30:01;;;;;;;1.73;0.65;;;;;;;;;;5054143;28;20116;-58
2022/05/26 06:45:05;;;;;;;;;;;;;;;;;;;;;
2022/05/26 06:48:00;;;;;;;;;;;;;;;;;;;;;
2022/05/26 06:50:48;;;;;;;1.65;0.50;;;;;;;;;;5068769;28;20077;-58
2022/05/26 06:53:49;;;;;;;1.48;0.57;;;;;;;;;;5069156;28;20032;-58
2022/05/26 06:56:28;;;;;;;0.95;0.50;;;;;;;;;;5007718;28;20453;-58
2022/05/26 06:58:55;;;;;;;1.05;0.25;;;;;;;;;;5002662;28;20541;-58
2022/05/26 07:04:41;;;;;;;1.52;0.40;;;;;;;;;;4949093;29;20024;-58
2022/05/26 07:10:52;;;;;;;1.10;0.50;;;;;;;;;;4930624;29;20035;-58
2022/05/26 07:16:35;;;;;;;;;;;;;;;;;;4926338;29;20537;-58
2022/05/26 07:19:13;;;;;;;1.05;0.50;;;;;;;;;;4955655;28;20048;-58
2022/05/26 07:22:13;;;;;;;2.08;0.68;;;;;;;;;;4987934;28;20034;-58
2022/05/26 07:24:55;;;;;;;0.95;0.38;;;;;;;;;;4970846;28;20066;-58
2022/05/26 07:27:37;;;;;;;2.13;0.47;;;;;;;;;;4969146;28;20058;-58
2022/05/26 07:30:20;;;;;;;1.00;0.45;;;;;;;;;;4987306;28;20042;-58
2022/05/26 07:42:03;;;;;;;2.78;0.73;;;;;;;;;;5053264;28;20063;-58
2022/05/26 07:48:09;;;;;;;0.70;0.30;;;;;;;;;;4983680;28;20058;-58
2022/05/26 07:53:44;;;;;;;1.15;0.70;;;;;;;;;;5003429;28;19910;-58
2022/05/26 07:56:20;;;;;;;1.23;0.57;;;;;;;;;;5006933;28;20027;-58
2022/05/26 08:04:53;;;;;;;2.55;0.38;;;;;;;;;;5017693;28;20036;-58
2022/05/26 08:07:44;;;;;;;0.85;0.35;;;;;;;;;;5025156;28;20049;-57
2022/05/26 08:10:53;;;;;;;2.70;0.47;;;;;;;;;;5025130;28;20022;-58
2022/05/26 08:14:06;;;;;;;;;;;;;;;;;;;;;
2022/05/26 08:16:43;;;;;;;1.00;0.30;;;;;;;;;;5025320;28;20040;-58
2022/05/26 08:22:30;;;;;;;1.40;0.50;;;;;;;;;;5005321;28;20034;-58
2022/05/26 08:31:41;;;;;;;;;;;;;;;;;;5000709;28;20023;-58
2022/05/26 08:34:26;;;;;;;1.40;0.60;;;;;;;;;;5003942;28;19905;-58
2022/05/26 08:37:15;;;;;;;2.00;0.68;;;;;;;;;;5003401;28;20030;-58
2022/05/26 08:45:51;;;;;;;0.82;0.38;;;;;;;;;;5007916;28;20029;-58
2022/05/26 08:51:57;;;;;;;2.00;0.68;;;;;;;;;;4937305;29;20510;-58
2022/05/26 08:54:45;;;;;;;0.90;0.50;;;;;;;;;;4966172;29;20439;-58
2022/05/26 08:57:30;;;;;;;0.95;0.25;;;;;;;;;;4963379;29;20085;-59
2022/05/26 09:12:55;;;;;;;1.50;0.47;;;;;;;;;;5032174;28;20099;-59
2022/05/26 09:15:32;;;;;;;0.52;0.30;;;;;;;;;;5003743;28;20078;-58
2022/05/26 09:18:25;;;;;;;1.55;0.63;;;;;;;;;;5040018;28;20042;-57
2022/05/26 09:21:11;;;;;;;;;;;;;;;;;;;;;
2022/05/26 09:27:03;;;;;;;1.60;0.60;;;;;;;;;;5026092;28;20018;-59
2022/05/26 09:29:34;;;;;;;1.05;0.40;;;;;;;;;;5049625;28;20030;-58
2022/05/26 09:35:26;;;;;;;0.90;0.40;;;;;;;;;;5039445;28;20069;-58
2022/05/26 09:41:14;;;;;;;1.80;0.60;;;;;;;;;;4989224;28;20031;-58
2022/05/26 09:43:50;;;;;;;1.05;0.43;;;;;;;;;;4955206;28;20521;-58
2022/05/26 09:46:42;;;;;;;1.63;0.57;;;;;;;;;;5023940;28;20033;-58
2022/05/26 09:49:26;;;;;;;0.90;0.40;;;;;;;;;;5049706;28;20384;-58
2022/05/26 09:55:44;;;;;;;0.22;0.10;;;;;;;;;;4986079;28;20050;-58
2022/05/26 09:58:40;;;;;;;0.88;0.30;;;;;;;;;;5001208;28;20041;-58
2022/05/26 10:04:32;;;;;;;1.52;0.55;;;;;;;;;;5046295;28;20044;-58
2022/05/26 10:07:17;;;;;;;0.95;0.50;;;;;;;;;;5046219;28;20045;-58
2022/05/26 10:10:08;;;;;;;1.83;0.40;;;;;;;;;;5061219;28;20037;-58
2022/05/26 10:12:56;;;;;;;1.40;0.82;;;;;;;;;;5046011;28;20033;-58
2022/05/26 10:15:47;;;;;;;1.50;0.82;;;;;;;;;;5036213;28;20028;-58
2022/05/26 10:21:59;;;;;;;1.48;0.38;;;;;;;;;;5036299;28;20208;-58
2022/05/26 10:25:01;;;;;;;2.05;0.50;;;;;;;;;;5034599;28;20040;-58
2022/05/26 10:27:54;;;;;;;0.77;0.30;;;;;;;;;;5036058;28;20036;-58
2022/05/26 10:30:42;;;;;;;1.45;0.50;;;;;;;;;;5019318;28;20037;-58
2022/05/26 10:33:48;;;;;;;0.65;0.30;;;;;;;;;;5036686;28;20483;-58
2022/05/26 10:36:35;;;;;;;0.93;0.45;;;;;;;;;;4975830;28;20414;-58
2022/05/26 10:39:29;;;;;;;2.20;0.65;;;;;;;;;;4974486;28;20046;-58
2022/05/26 10:42:33;;;;;;;0.52;0.20;;;;;;;;;;4975791;28;20370;-58
2022/05/26 10:48:21;;;;;;;1.42;0.60;;;;;;;;;;5009489;28;20041;-59
2022/05/26 10:54:20;;;;;;;1.80;0.77;;;;;;;;;;5034102;28;20458;-57
2022/05/26 10:57:07;;;;;;;1.45;0.55;;;;;;;;;;5034087;28;20355;-58
2022/05/26 11:00:09;;;;;;;6.03;1.45;;;;;;;;;;5033593;28;20025;-58
2022/05/26 11:02:54;;;;;;;1.85;0.70;;;;;;;;;;5034306;28;20108;-58
2022/05/26 11:05:53;;;;;;;;;;;;;;;;;;;;;
2022/05/26 11:08:56;;;;;;;1.80;0.60;;;;;;;;;;5033078;28;20140;-58
2022/05/26 11:11:49;;;;;;;1.95;0.43;;;;;;;;;;5032907;28;20475;-58
2022/05/26 11:17:36;;;;;;;1.27;0.57;;;;;;;;;;5035797;28;20029;-58
2022/05/26 11:23:25;;;;;;;0.77;0.40;;;;;;;;;;4994235;28;20034;-58
2022/05/26 11:26:00;;;;;;;1.48;0.60;;;;;;;;;;4994564;28;20026;-58
2022/05/26 11:29:15;;;;;;;2.10;0.90;;;;;;;;;;5036290;28;20424;-58
2022/05/26 11:37:56;;;;;;;0.75;0.38;;;;;;;;;;5035814;28;20107;-58
2022/05/26 11:40:54;;;;;;;1.23;0.40;;;;;;;;;;5035651;28;20021;-58
2022/05/26 11:43:39;;;;;;;1.23;0.50;;;;;;;;;;5017574;28;20033;-58
2022/05/26 11:46:24;;;;;;;0.82;0.40;;;;;;;;;;5017530;28;20471;-58
2022/05/26 11:49:21;;;;;;;3.33;0.60;;;;;;;;;;5035555;28;20037;-57
2022/05/26 11:54:55;;;;;;;0.88;0.38;;;;;;;;;;5007057;28;20495;-57
2022/05/26 11:58:03;;;;;;;1.20;0.60;;;;;;;;;;5016049;28;20144;-58
2022/05/26 12:01:06;;;;;;;2.25;0.73;;;;;;;;;;4956789;29;20043;-58
2022/05/26 12:03:53;;;;;;;1.42;0.70;;;;;;;;;;4955958;29;20127;-58
2022/05/26 12:07:03;;;;;;;0.98;0.30;;;;;;;;;;4946911;29;20071;-59
2022/05/26 12:12:37;;;;;;;0.88;0.40;;;;;;;;;;4935173;29;20036;-59
2022/05/26 12:21:52;;;;;;;1.75;0.70;;;;;;;;;;4852105;29;20639;-59
2022/05/26 12:24:57;;;;;;;1.67;0.68;;;;;;;;;;4919886;29;20035;-59
2022/05/26 12:27:58;;;;;;;2.08;0.57;;;;;;;;;;4843803;29;20514;-60
2022/05/26 12:34:02;;;;;;;4.82;0.60;;;;;;;;;;4926264;29;20155;-59
2022/05/26 12:36:57;;;;;;;2.58;0.93;;;;;;;;;;4919419;29;20032;-59
2022/05/26 12:39:35;;;;;;;1.95;0.63;;;;;;;;;;4910623;29;20393;-59
2022/05/26 12:45:51;;;;;;;1.27;0.40;;;;;;;;;;4900058;29;20043;-59
2022/05/26 12:48:35;;;;;;;1.80;0.52;;;;;;;;;;4933937;29;20048;-59
2022/05/26 12:51:22;;;;;;;;;;;;;;;;;;;;;
2022/05/26 12:54:10;;;;;;;1.58;0.50;;;;;;;;;;5033685;28;20022;-59
2022/05/26 12:56:59;;;;;;;0.88;0.57;;;;;;;;;;5015688;28;20033;-59
2022/05/26 13:05:43;;;;;;;2.33;0.70;;;;;;;;;;4986771;28;20034;-59
2022/05/26 13:08:29;;;;;;;2.13;0.70;;;;;;;;;;5037901;28;20050;-59
2022/05/26 13:11:08;;;;;;;1.35;0.60;;;;;;;;;;5036948;28;20538;-58
2022/05/26 13:13:58;;;;;;;1.52;0.80;;;;;;;;;;5020353;28;20049;-58
2022/05/26 13:17:07;;;;;;;0.80;0.47;;;;;;;;;;5037490;28;20545;-58
2022/05/26 13:19:56;;;;;;;1.45;0.70;;;;;;;;;;5019291;28;20041;-58
2022/05/26 13:25:35;;;;;;;2.92;0.82;;;;;;;;;;5034280;28;20025;-58
2022/05/26 13:28:33;;;;;;;;;;;;;;;;;;;;;
2022/05/26 13:34:26;;;;;;;0.88;0.47;;;;;;;;;;5034220;28;20040;-58
2022/05/26 13:37:19;;;;;;;0.95;0.40;;;;;;;;;;5037479;28;20032;-59
2022/05/26 13:40:04;;;;;;;1.20;0.60;;;;;;;;;;5020577;28;20033;-58
2022/05/26 13:42:34;;;;;;;3.00;1.23;;;;;;;;;;5032266;28;20475;-58
2022/05/26 13:45:11;;;;;;;1.37;0.57;;;;;;;;;;5020195;28;20474;-58
2022/05/26 13:48:25;;;;;;;2.08;0.70;;;;;;;;;;5002488;28;20033;-58
2022/05/26 13:57:41;;;;;;;;;;;;;;;;;;;;;
2022/05/26 14:00:23;;;;;;;3.90;1.02;;;;;;;;;;5017289;28;20172;-58
2022/05/26 14:06:18;;;;;;;1.25;0.60;;;;;;;;;;4995616;28;20065;-58
2022/05/26 14:09:16;;;;;;;4.20;1.00;;;;;;;;;;4918327;29;20040;-58
2022/05/26 14:12:02;;;;;;;;;;;;;;;;;;;;;
2022/05/26 14:17:42;;;;;;;2.30;1.05;;;;;;;;;;4995478;28;20512;-58
2022/05/26 14:20:33;;;;;;;1.17;0.53;;;;;;;;;;4998114;28;20597;-58
2022/05/26 14:23:43;;;;;;;1.40;0.60;;;;;;;;;;4996435;28;20475;-58
2022/05/26 14:26:54;;;;;;;4.28;0.93;;;;;;;;;;4918065;29;20636;-58
2022/05/26 14:29:54;;;;;;;2.00;0.68;;;;;;;;;;4917198;29;20123;-58
2022/05/26 14:32:54;;;;;;;2.45;0.70;;;;;;;;;;4894909;29;20129;-58
2022/05/26 14:35:39;;;;;;;3.00;0.82;;;;;;;;;;4917979;29;20396;-58
2022/05/26 14:38:16;;;;;;;1.50;0.65;;;;;;;;;;4917506;29;20044;-58
2022/05/26 14:40:54;;;;;;;1.90;0.75;;;;;;;;;;4930863;29;20043;-58
2022/05/26 14:43:35;;;;;;;1.38;0.60;;;;;;;;;;4936874;29;20032;-58
2022/05/26 14:46:46;;;;;;;;;;;;;;;;;;;;;
2022/05/26 14:49:41;;;;;;;2.28;0.85;;;;;;;;;;4956052;28;20034;-59
2022/05/26 14:52:39;;;;;;;1.40;0.70;;;;;;;;;;5001725;28;20061;-58
2022/05/26 14:58:27;;;;;;;2.00;0.95;;;;;;;;;;5010904;28;20066;-58
2022/05/26 15:04:13;;;;;;;3.38;0.93;;;;;;;;;;5035053;28;20037;-60
2022/05/26 15:06:50;;;;;;;1.85;0.65;;;;;;;;;;5034667;28;20483;-59
2022/05/26 15:12:17;;;;;;;1.65;0.73;;;;;;;;;;5035249;28;20028;-59
2022/05/26 15:14:55;;;;;;;1.70;0.70;;;;;;;;;;5013354;28;20030;-59
2022/05/26 15:18:00;;;;;;;1.88;0.90;;;;;;;;;;5013593;28;20050;-59
2022/05/26 15:20:48;;;;;;;1.42;0.80;;;;;;;;;;4984521;28;20543;-60
2022/05/26 15:23:22;;;;;;;1.98;0.90;;;;;;;;;;5012770;28;20124;-59
2022/05/26 15:29:21;;;;;;;1.08;0.50;;;;;;;;;;5013165;28;20041;-59
2022/05/26 15:31:56;;;;;;;1.15;0.60;;;;;;;;;;4919578;29;20482;-59
2022/05/26 15:38:06;;;;;;;1.67;0.52;;;;;;;;;;4954270;29;20078;-59
2022/05/26 15:44:10;;;;;;;2.25;0.50;;;;;;;;;;4991256;28;20022;-59
2022/05/26 15:47:16;;;;;;;1.23;0.68;;;;;;;;;;5031519;28;20053;-59
2022/05/26 15:49:50;;;;;;;3.28;1.90;;;;;;;;;;5038668;28;20415;-59
2022/05/26 15:52:42;;;;;;;1.30;0.50;;;;;;;;;;5032738;28;20060;-60
2022/05/26 15:55:36;;;;;;;1.73;0.57;;;;;;;;;;5035003;28;20490;-59
2022/05/26 15:58:45;;;;;;;;;;;;;;;;;;;;;
2022/05/26 16:01:28;;;;;;;1.33;0.68;;;;;;;;;;5024305;28;20127;-57
2022/05/26 16:04:31;;;;;;;2.90;0.90;;;;;;;;;;5016494;28;20042;-57
2022/05/26 16:07:00;;;;;;;1.33;0.52;;;;;;;;;;5021405;28;20021;-58
2022/05/26 16:09:27;;;;;;;1.88;0.73;;;;;;;;;;4999771;28;20034;-60
2022/05/26 16:11:54;;;;;;;1.52;0.70;;;;;;;;;;5016990;28;20033;-59
2022/05/26 16:14:48;;;;;;;1.50;0.75;;;;;;;;;;5000936;28;20554;-59
2022/05/26 16:17:38;;;;;;;1.85;0.57;;;;;;;;;;5035380;28;20025;-59
2022/05/26 16:20:41;;;;;;;1.50;0.57;;;;;;;;;;5035680;28;20061;-59
2022/05/26 16:23:36;;;;;;;2.25;0.95;;;;;;;;;;5037183;28;20089;-59
2022/05/26 16:29:55;;;;;;;0.90;0.50;;;;;;;;;;5045228;28;20045;-58
2022/05/26 16:32:31;;;;;;;1.48;0.75;;;;;;;;;;5037647;28;20030;-58
2022/05/26 16:38:21;;;;;;;3.50;3.10;;;;;;;;;;5033354;28;20067;-59
2022/05/26 16:41:06;;;;;;;4.18;1.65;;;;;;;;;;5050033;28;20052;-59
2022/05/26 16:43:41;;;;;;;4.65;2.92;;;;;;;;;;5016086;28;20037;-59
2022/05/26 16:46:41;;;;;;;3.80;1.45;;;;;;;;;;5034192;28;20369;-59
2022/05/26 16:49:14;;;;;;;2.13;1.00;;;;;;;;;;5002463;28;20071;-59
2022/05/26 16:51:59;;;;;;;2.38;1.10;;;;;;;;;;5015868;28;20043;-61
2022/05/26 16:54:46;;;;;;;1.63;0.80;;;;;;;;;;5033558;28;20045;-59
2022/05/26 17:00:37;;;;;;;1.30;0.57;;;;;;;;;;5028021;28;20080;-59
2022/05/26 17:09:52;;;;;;;1.77;0.82;;;;;;;;;;5012601;28;20044;-59
2022/05/26 17:12:22;;;;;;;1.70;0.80;;;;;;;;;;5023320;28;20387;-59
2022/05/26 17:24:27;;;;;;;2.10;0.93;;;;;;;;;;5024708;28;20025;-59
2022/05/26 17:27:05;;;;;;;;;;;;;;;;;;5034537;28;20014;-59
2022/05/26 17:29:43;;;;;;;3.72;1.63;;;;;;;;;;5033628;28;19971;-60
2022/05/26 17:32:32;;;;;;;;;;;;;;;;;;;;;
2022/05/26 17:48:05;;;;;;;3.15;1.50;;;;;;;;;;4981803;28;20042;-59
2022/05/26 17:50:48;;;;;;;1.45;0.77;;;;;;;;;;4991272;28;20054;-59
2022/05/26 17:53:29;;;;;;;;;;;;;;;;;;;;;
2022/05/26 17:55:59;;;;;;;5.03;2.70;;;;;;;;;;5024140;28;20129;-59
2022/05/26 18:01:42;;;;;;;1.15;0.50;;;;;;;;;;4943677;29;20110;-59
2022/05/26 18:07:59;;;;;;;;;;;;;;;;;;;;;
2022/05/26 18:14:15;;;;;;;1.40;0.80;;;;;;;;;;4933303;29;20032;-60
2022/05/26 18:23:36;;;;;;;1.63;0.90;;;;;;;;;;4861624;29;20400;-59
2022/05/26 18:26:28;;;;;;;3.38;1.20;;;;;;;;;;4902150;29;20482;-59
2022/05/26 18:29:20;;;;;;;1.73;0.75;;;;;;;;;;4911530;29;20051;-59
2022/05/26 18:32:14;;;;;;;2.70;0.98;;;;;;;;;;4975495;28;20029;-59
2022/05/26 18:35:09;;;;;;;3.90;1.40;;;;;;;;;;4975109;28;20031;-59
2022/05/26 18:41:12;;;;;;;2.00;0.85;;;;;;;;;;4917231;29;20031;-58
2022/05/26 18:46:50;;;;;;;3.65;1.25;;;;;;;;;;4938264;29;20027;-59
2022/05/26 18:49:23;;;;;;;3.35;1.15;;;;;;;;;;4967276;29;20043;-59
2022/05/26 18:53:04;;;;;;;;;;;;;;;;;;;;;
2022/05/26 18:55:14;;;;;;;0.95;0.50;;;;;;;;;;4960062;28;20051;-60
2022/05/26 18:57:42;;;;;;;2.25;0.90;;;;;;;;;;4986334;28;20460;-59
2022/05/26 19:00:47;;;;;;;1.52;0.60;;;;;;;;;;4985832;28;20043;-59
2022/05/26 19:09:37;;;;;;;1.60;0.82;;;;;;;;;;5038626;28;20426;-59
2022/05/26 19:12:45;;;;;;;1.95;1.10;;;;;;;;;;5044435;28;20032;-60
2022/05/26 19:15:35;;;;;;;2.08;0.70;;;;;;;;;;5041247;28;20048;-60
2022/05/26 19:21:09;;;;;;;2.17;1.10;;;;;;;;;;4994143;28;20045;-59
2022/05/26 19:24:16;;;;;;;4.47;1.45;;;;;;;;;;5032166;28;20033;-59
2022/05/26 19:30:28;;;;;;;1.80;0.90;;;;;;;;;;4983553;28;20112;-60
2022/05/26 19:33:11;;;;;;;1.65;0.80;;;;;;;;;;4948727;29;20079;-60
2022/05/26 19:38:59;;;;;;;2.53;1.00;;;;;;;;;;5028292;28;20076;-60
2022/05/26 19:41:52;;;;;;;;;;;;;;;;;;;;;
2022/05/26 19:47:58;;;;;;;1.48;0.80;;;;;;;;;;5040188;28;20038;-60
2022/05/26 19:50:30;;;;;;;2.65;1.10;;;;;;;;;;5029358;28;20037;-59
2022/05/26 19:53:17;;;;;;;1.77;0.77;;;;;;;;;;5047145;28;20029;-59
2022/05/26 20:01:59;;;;;;;1.80;1.00;;;;;;;;;;5040543;28;20057;-59
2022/05/26 20:04:46;;;;;;;3.03;1.35;;;;;;;;;;5046023;28;20072;-58
2022/05/26 20:07:51;;;;;;;1.10;0.70;;;;;;;;;;5044685;28;20029;-60
2022/05/26 20:10:44;;;;;;;2.10;1.10;;;;;;;;;;5038525;28;20108;-58
2022/05/26 20:16:00;;;;;;;1.70;1.10;;;;;;;;;;5000304;28;20095;-61
2022/05/26 20:18:40;;;;;;;1.80;1.02;;;;;;;;;;4997297;28;20034;-59
2022/05/26 20:21:25;;;;;;;2.40;1.08;;;;;;;;;;5024522;28;20037;-59
2022/05/26 20:24:07;;;;;;;1.98;0.98;;;;;;;;;;5043861;28;20423;-59
2022/05/26 20:29:57;;;;;;;2.63;1.05;;;;;;;;;;5025828;28;20029;-59
2022/05/26 20:32:46;;;;;;;2.25;0.82;;;;;;;;;;5043468;28;20061;-59
2022/05/26 20:35:29;;;;;;;;;;;;;;;;;;;;;
2022/05/26 20:38:24;;;;;;;2.75;1.42;;;;;;;;;;5043254;28;20068;-60
2022/05/26 20:49:55;;;;;;;1.55;1.02;;;;;;;;;;4906552;29;20044;-59
2022/05/26 21:01:59;;;;;;;4.70;3.40;;;;;;;;;;4905821;29;20036;-59
2022/05/26 21:05:16;;;;;;;;;;;;;;;;;;;;;
2022/05/26 21:08:03;;;;;;;3.15;2.10;;;;;;;;;;4888193;29;20119;-59
2022/05/26 21:13:30;;;;;;;5.18;2.92;;;;;;;;;;4914802;29;20032;-59
2022/05/26 21:16:46;;;;;;;4.05;1.98;;;;;;;;;;4927308;29;20092;-59
2022/05/26 21:19:14;;;;;;;;;;;;;;;;;;;;;
2022/05/26 21:21:57;;;;;;;3.05;1.90;;;;;;;;;;4922197;29;20131;-59
2022/05/26 21:27:56;;;;;;;2.25;1.50;;;;;;;;;;4835716;29;20086;-59
2022/05/26 21:39:29;;;;;;;2.78;1.50;;;;;;;;;;5029128;28;20037;-59
2022/05/26 21:42:09;;;;;;;1.90;1.15;;;;;;;;;;5028722;28;20018;-59
2022/05/26 21:44:56;;;;;;;4.68;0.98;;;;;;;;;;5028702;28;20093;-59
2022/05/26 21:47:34;;;;;;;2.95;1.55;;;;;;;;;;4993667;28;20118;-59
2022/05/26 21:50:38;;;;;;;3.28;1.52;;;;;;;;;;5028062;28;20030;-59
2022/05/26 21:52:58;;;;;;;3.25;1.45;;;;;;;;;;5023953;28;20032;-60
2022/05/26 21:55:56;;;;;;;2.08;0.98;;;;;;;;;;5009109;28;20045;-59
2022/05/26 21:58:49;;;;;;;3.78;1.30;;;;;;;;;;5015923;28;20053;-59
2022/05/26 22:01:49;;;;;;;1.48;0.90;;;;;;;;;;5068475;28;20028;-58
2022/05/26 22:04:30;;;;;;;3.47;1.42;;;;;;;;;;5050685;28;20037;-59
2022/05/26 22:13:11;;;;;;;;;;;;;;;;;;5069154;28;20040;-59
2022/05/26 22:16:07;;;;;;;2.35;1.70;;;;;;;;;;5068979;28;19932;-59
2022/05/26 22:22:30;;;;;;;2.42;1.35;;;;;;;;;;5007516;28;20484;-59
2022/05/26 22:28:23;;;;;;;4.22;1.70;;;;;;;;;;5007428;28;20037;-58
2022/05/26 22:37:16;;;;;;;3.05;1.17;;;;;;;;;;5026889;28;20048;-59
2022/05/26 22:40:00;;;;;;;1.85;1.35;;;;;;;;;;5027056;28;20088;-59
2022/05/26 22:48:47;;;;;;;1.90;1.20;;;;;;;;;;5067480;28;20048;-58
2022/05/26 22:51:31;;;;;;;2.40;1.17;;;;;;;;;;5066218;28;20040;-59
2022/05/26 22:54:20;;;;;;;1.85;1.00;;;;;;;;;;5050536;28;20064;-58
2022/05/26 22:57:06;;;;;;;2.70;1.15;;;;;;;;;;4952197;29;20066;-59
2022/05/26 22:59:38;;;;;;;4.30;1.58;;;;;;;;;;4951325;29;20054;-59
2022/05/26 23:02:43;;;;;;;1.85;0.90;;;;;;;;;;4968023;29;20031;-59
2022/05/26 23:08:14;;;;;;;2.17;1.17;;;;;;;;;;4966086;29;20160;-58
2022/05/26 23:11:04;;;;;;;;;;;;;;;;;;;;;
2022/05/26 23:17:03;;;;;;;3.03;1.88;;;;;;;;;;4928980;29;20128;-59
2022/05/26 23:28:43;;;;;;;2.13;1.30;;;;;;;;;;5007113;28;20124;-59
2022/05/26 23:34:07;;;;;;;1.42;0.90;;;;;;;;;;5006018;28;20092;-59
2022/05/26 23:39:52;;;;;;;3.00;1.60;;;;;;;;;;5006266;28;20038;-59
2022/05/26 23:46:00;;;;;;;1.73;0.98;;;;;;;;;;5028626;28;20032;-58
2022/05/26 23:48:35;;;;;;;1.88;0.95;;;;;;;;;;5028589;28;20544;-59
2022/05/26 23:51:31;;;;;;;2.20;0.85;;;;;;;;;;5028397;28;20018;-59
